Time;durP1;ratioP1;P1;durP2;ratioP2;P2;SDS_P1;SDS_P2;PMS_P1;PMS_P2;Temp;Humidity;BMP_temperature;BMP_pressure;BME280_temperature;BME280_humidity;BME280_pressure;Samples;Min_cycle;Max_cycle;Signal;HPM_P1;HPM_P2
2021/12/07 00:01:36;;;;;;;41.95;23.80;;;0.80;99.90;;;;;;5022244;28;20045;-47
2021/12/07 00:04:04;;;;;;;43.47;24.13;;;0.80;99.90;;;;;;5022940;28;20099;-48
2021/12/07 00:06:30;;;;;;;40.95;22.48;;;0.80;99.90;;;;;;5018573;28;20148;-46
2021/12/07 00:08:56;;;;;;;39.03;23.52;;;0.80;99.90;;;;;;5021648;28;20053;-47
2021/12/07 00:11:30;;;;;;;38.70;22.17;;;0.80;99.90;;;;;;5022561;28;20049;-46
2021/12/07 00:13:57;;;;;;;37.30;20.65;;;0.90;99.90;;;;;;5019773;28;20084;-48
2021/12/07 00:16:25;;;;;;;39.38;23.05;;;0.90;99.90;;;;;;5026039;28;20076;-49
2021/12/07 00:18:51;;;;;;;41.83;22.50;;;0.90;99.90;;;;;;5018526;28;20049;-47
2021/12/07 00:21:18;;;;;;;34.58;21.20;;;0.90;99.90;;;;;;5020777;28;20057;-46
2021/12/07 00:23:46;;;;;;;36.22;20.70;;;1.00;99.90;;;;;;5019609;28;20049;-45
2021/12/07 00:26:12;;;;;;;37.28;21.25;;;1.00;99.90;;;;;;5022173;28;20045;-45
2021/12/07 00:28:40;;;;;;;34.10;21.15;;;1.00;99.90;;;;;;5016671;28;20496;-48
2021/12/07 00:31:24;;;;;;;37.53;21.85;;;1.00;99.90;;;;;;5016656;28;20456;-47
2021/12/07 00:34:11;;;;;;;33.17;20.80;;;0.90;99.90;;;;;;4991251;28;20136;-47
2021/12/07 02:57:55;;;;;;;24.20;15.18;;;1.20;99.90;;;;;;5025528;28;20132;-49
2021/12/07 03:04:08;;;;;;;25.55;14.98;;;1.30;99.90;;;;;;5026268;28;20477;-48
2021/12/07 03:26:15;;;;;;;29.55;18.23;;;1.70;99.90;;;;;;4982800;28;20058;-47
2021/12/07 03:28:52;;;;;;;32.10;17.92;;;1.70;99.90;;;;;;4982619;28;20512;-48
2021/12/07 03:31:19;;;;;;;29.23;17.75;;;1.70;99.90;;;;;;4947779;28;20642;-47
2021/12/07 03:33:45;;;;;;;33.17;18.20;;;1.60;99.90;;;;;;4962003;28;20054;-47
2021/12/07 03:36:13;;;;;;;30.40;17.65;;;1.70;99.90;;;;;;4969455;28;20472;-47
2021/12/07 03:38:40;;;;;;;30.27;17.27;;;1.60;99.90;;;;;;4964634;28;20142;-47
2021/12/07 03:41:07;;;;;;;32.28;19.13;;;1.70;99.90;;;;;;4963102;28;20058;-48
2021/12/07 03:43:33;;;;;;;29.05;17.20;;;1.70;99.90;;;;;;4930484;28;20063;-50
2021/12/07 03:46:00;;;;;;;32.60;18.25;;;1.80;99.90;;;;;;4965577;28;20061;-49
2021/12/07 03:48:26;;;;;;;30.27;17.88;;;1.90;99.90;;;;;;4998804;28;20136;-51
2021/12/07 03:50:52;;;;;;;33.70;17.40;;;1.80;99.90;;;;;;5012906;28;20064;-48
2021/12/07 03:53:23;;;;;;;35.00;16.45;;;1.90;99.90;;;;;;5021211;28;20049;-50
2021/12/07 03:55:49;;;;;;;26.00;14.27;;;1.90;99.90;;;;;;5010085;28;20064;-47
2021/12/07 03:58:15;;;;;;;27.08;15.55;;;1.90;99.90;;;;;;5008741;28;20077;-48
2021/12/07 04:00:44;;;;;;;25.13;14.15;;;2.00;99.90;;;;;;5002253;28;20046;-47
2021/12/07 04:03:13;;;;;;;25.65;13.70;;;2.00;99.90;;;;;;5005196;28;20160;-50
2021/12/07 04:05:48;;;;;;;25.85;14.60;;;2.00;99.90;;;;;;5003793;28;20461;-48
2021/12/07 04:08:20;;;;;;;23.05;12.88;;;2.00;99.90;;;;;;4985310;28;20057;-47
2021/12/07 04:10:46;;;;;;;22.17;12.63;;;2.00;99.90;;;;;;5002755;28;20054;-49
2021/12/07 04:13:12;;;;;;;21.33;13.05;;;2.00;99.90;;;;;;5001471;28;20526;-47
2021/12/07 04:15:38;;;;;;;23.73;12.15;;;2.00;99.90;;;;;;5002465;28;20133;-47
2021/12/07 04:18:05;;;;;;;26.30;12.57;;;1.90;99.90;;;;;;4990980;28;20104;-47
2021/12/07 04:20:31;;;;;;;21.95;13.00;;;1.90;99.90;;;;;;4966689;28;20483;-47
2021/12/07 04:22:57;;;;;;;25.60;12.93;;;1.90;99.90;;;;;;5002615;28;20515;-47
2021/12/07 04:25:26;;;;;;;26.23;13.23;;;1.90;99.90;;;;;;5003347;28;20049;-48
2021/12/07 04:27:53;;;;;;;22.27;12.55;;;1.80;99.90;;;;;;5003668;28;20480;-49
2021/12/07 04:30:22;;;;;;;22.65;12.27;;;1.70;99.90;;;;;;4991728;28;20508;-49
2021/12/07 04:32:49;;;;;;;21.40;13.80;;;1.60;99.90;;;;;;5001652;28;20061;-47
2021/12/07 04:35:15;;;;;;;20.20;13.15;;;1.50;99.90;;;;;;4981918;28;20058;-48
2021/12/07 04:37:42;;;;;;;23.80;12.60;;;1.50;99.90;;;;;;5009360;28;21446;-47
2021/12/07 04:40:11;;;;;;;20.38;13.63;;;1.40;99.90;;;;;;4986109;28;20054;-48
2021/12/07 04:42:37;;;;;;;28.00;13.23;;;1.30;99.90;;;;;;5001401;28;20050;-47
2021/12/07 04:45:08;;;;;;;24.42;13.48;;;1.30;99.90;;;;;;5002580;28;20056;-48
2021/12/07 04:58:31;;;;;;;19.83;11.52;;;1.10;99.90;;;;;;5027399;28;20102;-50
2021/12/07 05:00:57;;;;;;;28.10;12.65;;;1.20;99.90;;;;;;5050170;28;20053;-47
2021/12/07 05:03:26;;;;;;;22.10;11.23;;;1.20;99.90;;;;;;5039635;28;20133;-48
2021/12/07 05:05:53;;;;;;;23.45;11.70;;;1.20;99.90;;;;;;5037303;28;20058;-48
2021/12/07 05:08:41;;;;;;;24.25;11.90;;;1.20;99.90;;;;;;5054204;28;20449;-47
2021/12/07 05:18:59;;;;;;;28.42;12.43;;;1.10;99.90;;;;;;5046757;28;20075;-47
2021/12/07 05:24:37;;;;;;;31.02;13.90;;;1.20;99.90;;;;;;4968927;28;20058;-47
2021/12/07 05:37:58;;;;;;;33.00;12.60;;;1.00;99.90;;;;;;4943869;28;20063;-50
2021/12/07 05:40:26;;;;;;;26.80;13.00;;;1.00;99.90;;;;;;4960814;28;20133;-50
2021/12/07 05:42:53;;;;;;;26.95;12.40;;;1.00;99.90;;;;;;4959833;28;20151;-48
2021/12/07 05:45:22;;;;;;;28.02;12.48;;;1.00;99.90;;;;;;4944103;28;20129;-47
2021/12/07 05:47:49;;;;;;;27.13;11.80;;;1.00;99.90;;;;;;4943753;28;21019;-47
2021/12/07 05:50:18;;;;;;;25.38;11.55;;;0.90;99.90;;;;;;4959228;28;20106;-49
2021/12/07 05:52:44;;;;;;;26.02;12.90;;;0.90;99.90;;;;;;4959151;28;20042;-49
2021/12/07 05:55:10;;;;;;;25.15;13.18;;;0.90;99.90;;;;;;4995350;28;20056;-50
2021/12/07 05:57:37;;;;;;;27.08;11.27;;;0.90;99.90;;;;;;5023190;28;20614;-49
2021/12/07 06:00:08;;;;;;;26.33;11.38;;;0.90;99.90;;;;;;5023238;28;20092;-50
2021/12/07 06:02:34;;;;;;;24.33;10.75;;;0.80;99.90;;;;;;5042326;28;20503;-49
2021/12/07 06:04:59;;;;;;;32.33;11.63;;;0.80;99.90;;;;;;5016927;28;20051;-48
2021/12/07 06:07:25;;;;;;;30.17;10.68;;;0.70;99.90;;;;;;5030493;28;20085;-48
2021/12/07 06:09:51;;;;;;;28.05;10.32;;;0.70;99.90;;;;;;5024940;28;20403;-49
2021/12/07 06:12:17;;;;;;;20.05;9.80;;;0.70;99.90;;;;;;5026150;28;20203;-50
2021/12/07 06:14:44;;;;;;;23.90;10.57;;;0.60;99.90;;;;;;5033991;28;20052;-49
2021/12/07 06:17:13;;;;;;;23.00;9.95;;;0.70;99.90;;;;;;5045246;28;20059;-52
2021/12/07 06:19:40;;;;;;;21.83;10.38;;;0.60;99.90;;;;;;5052057;28;20045;-48
2021/12/07 06:22:06;;;;;;;23.55;9.63;;;0.70;99.90;;;;;;5043372;28;20511;-47
2021/12/07 06:24:33;;;;;;;27.40;10.88;;;0.70;99.90;;;;;;5042972;28;20056;-50
2021/12/07 06:26:59;;;;;;;25.25;10.30;;;0.70;99.90;;;;;;5044144;28;20053;-48
2021/12/07 06:29:25;;;;;;;24.27;8.98;;;0.60;99.90;;;;;;5051731;28;20133;-46
2021/12/07 06:31:53;;;;;;;33.13;10.30;;;0.60;99.90;;;;;;5051170;28;20406;-47
2021/12/07 06:34:20;;;;;;;34.00;10.32;;;0.60;99.90;;;;;;5033168;28;20091;-47
2021/12/07 06:36:51;;;;;;;27.48;9.02;;;0.60;99.90;;;;;;5049773;28;20526;-47
2021/12/07 06:39:18;;;;;;;24.92;8.93;;;0.60;99.90;;;;;;5039454;28;20546;-48
2021/12/07 06:41:45;;;;;;;23.73;9.10;;;0.60;99.90;;;;;;5025056;28;20554;-48
2021/12/07 06:44:11;;;;;;;30.80;8.23;;;0.70;99.90;;;;;;5054865;28;20060;-48
2021/12/07 06:46:39;;;;;;;26.60;9.15;;;0.60;99.90;;;;;;5037284;28;20486;-47
2021/12/07 06:49:05;;;;;;;19.95;7.50;;;0.70;99.90;;;;;;5044175;28;20364;-47
2021/12/07 06:51:31;;;;;;;19.25;7.18;;;0.60;99.90;;;;;;5026071;28;20091;-47
2021/12/07 06:53:58;;;;;;;20.13;6.45;;;0.60;99.90;;;;;;5045701;28;20048;-47
2021/12/07 06:56:24;;;;;;;20.30;6.45;;;0.60;99.90;;;;;;5050400;28;20053;-49
2021/12/07 06:58:49;;;;;;;21.10;6.45;;;0.60;99.90;;;;;;5055849;28;20102;-47
2021/12/07 07:01:15;;;;;;;22.30;7.00;;;0.60;99.90;;;;;;5057806;28;20056;-47
2021/12/07 07:03:42;;;;;;;11.30;5.57;;;0.60;99.90;;;;;;5047512;28;20045;-49
2021/12/07 07:06:08;;;;;;;17.90;5.90;;;0.70;99.90;;;;;;5055072;28;20114;-47
2021/12/07 07:08:33;;;;;;;19.00;6.22;;;0.70;99.90;;;;;;5045283;28;20040;-47
2021/12/07 07:11:00;;;;;;;15.88;5.60;;;0.70;99.90;;;;;;5052035;28;20045;-47
2021/12/07 07:13:25;;;;;;;23.90;5.43;;;0.70;99.90;;;;;;5029548;28;20057;-50
2021/12/07 07:15:53;;;;;;;20.30;5.32;;;0.80;99.90;;;;;;5050505;28;20045;-47
2021/12/07 07:18:19;;;;;;;13.05;5.05;;;0.80;99.90;;;;;;5048359;28;20104;-47
2021/12/07 07:20:45;;;;;;;18.60;5.38;;;0.90;99.90;;;;;;5056893;28;20056;-50
2021/12/07 07:23:10;;;;;;;14.45;4.82;;;0.90;99.90;;;;;;5045002;28;20041;-50
2021/12/07 07:25:36;;;;;;;15.02;4.55;;;0.90;99.90;;;;;;5057126;28;20395;-47
2021/12/07 07:28:03;;;;;;;21.35;4.43;;;0.90;99.90;;;;;;5012108;28;20057;-48
2021/12/07 07:30:29;;;;;;;11.93;4.50;;;0.90;99.90;;;;;;5049309;28;20407;-47
2021/12/07 07:32:58;;;;;;;12.70;4.32;;;0.80;99.90;;;;;;5043147;28;20049;-47
2021/12/07 07:35:24;;;;;;;15.23;5.00;;;0.90;99.90;;;;;;5042919;28;20053;-48
2021/12/07 07:37:52;;;;;;;11.43;3.80;;;0.80;99.90;;;;;;5031811;28;20473;-48
2021/12/07 07:40:20;;;;;;;15.73;4.13;;;0.80;99.90;;;;;;5041526;28;20594;-47
2021/12/07 07:42:46;;;;;;;15.52;4.32;;;0.80;99.90;;;;;;5007991;28;20056;-47
2021/12/07 07:45:12;;;;;;;16.25;3.97;;;0.80;99.90;;;;;;5043012;28;20052;-48
2021/12/07 07:47:39;;;;;;;18.75;4.80;;;0.90;99.90;;;;;;5025614;28;20576;-47
2021/12/07 07:50:07;;;;;;;18.08;6.28;;;0.80;99.90;;;;;;5050930;28;20470;-49
2021/12/07 07:52:34;;;;;;;16.38;5.13;;;0.90;99.90;;;;;;5027819;28;20044;-47
2021/12/07 07:55:00;;;;;;;14.90;4.47;;;0.90;99.90;;;;;;5045176;28;20546;-48
2021/12/07 07:57:27;;;;;;;12.23;4.07;;;0.90;99.90;;;;;;5042562;28;20057;-48
2021/12/07 07:59:53;;;;;;;14.85;3.72;;;0.90;99.90;;;;;;5041320;28;20459;-48
2021/12/07 08:02:18;;;;;;;13.52;3.60;;;0.90;99.90;;;;;;5043040;28;20067;-47
2021/12/07 08:04:44;;;;;;;10.77;4.03;;;0.90;99.90;;;;;;5040049;28;20048;-49
2021/12/07 08:07:10;;;;;;;16.40;3.92;;;0.90;99.90;;;;;;5042787;28;20131;-48
2021/12/07 08:09:36;;;;;;;13.57;4.15;;;1.00;99.90;;;;;;5043266;28;20037;-47
2021/12/07 08:12:05;;;;;;;16.52;4.25;;;0.90;99.90;;;;;;5006076;28;20140;-47
2021/12/07 08:14:31;;;;;;;13.15;4.72;;;0.90;99.90;;;;;;5024103;28;20048;-47
2021/12/07 08:16:57;;;;;;;17.88;5.22;;;0.90;99.90;;;;;;5043016;28;20450;-47
2021/12/07 08:19:23;;;;;;;16.73;4.53;;;0.90;99.90;;;;;;5026803;28;20123;-47
2021/12/07 08:21:49;;;;;;;14.80;4.28;;;0.90;99.90;;;;;;5042337;28;20098;-47
2021/12/07 08:24:15;;;;;;;18.25;4.32;;;0.90;99.90;;;;;;5044623;28;20056;-48
2021/12/07 08:26:41;;;;;;;14.23;4.63;;;0.90;99.90;;;;;;5042365;28;20053;-47
2021/12/07 08:29:07;;;;;;;12.93;5.05;;;1.00;99.90;;;;;;5025390;28;20076;-49
2021/12/07 08:31:33;;;;;;;13.00;4.57;;;1.00;99.90;;;;;;5021119;28;20141;-49
2021/12/07 08:34:00;;;;;;;19.73;4.40;;;1.00;99.90;;;;;;5037424;28;20130;-48
2021/12/07 08:36:27;;;;;;;18.15;5.10;;;1.10;99.90;;;;;;5041389;28;20060;-52
2021/12/07 08:38:54;;;;;;;17.40;4.65;;;1.10;99.90;;;;;;5041455;28;20131;-49
2021/12/07 08:41:19;;;;;;;17.95;6.57;;;1.10;99.90;;;;;;5042238;28;20136;-48
2021/12/07 08:43:45;;;;;;;17.92;5.38;;;1.10;99.90;;;;;;5041024;28;20110;-48
2021/12/07 08:46:13;;;;;;;11.88;4.93;;;1.20;99.90;;;;;;5028623;28;20053;-47
2021/12/07 09:00:57;;;;;;;22.65;6.38;;;1.50;99.90;;;;;;5029216;28;20054;-48
2021/12/07 09:03:23;;;;;;;19.35;6.00;;;1.50;99.90;;;;;;5039287;28;20410;-46
2021/12/07 09:05:49;;;;;;;17.67;5.95;;;1.50;99.90;;;;;;5043268;28;20049;-48
2021/12/07 09:08:15;;;;;;;16.48;6.43;;;1.50;99.90;;;;;;5040690;28;20463;-47
2021/12/07 09:10:41;;;;;;;21.02;7.82;;;1.60;99.90;;;;;;5040221;28;20562;-47
2021/12/07 09:13:08;;;;;;;20.83;7.20;;;1.60;99.90;;;;;;5033631;28;20566;-47
2021/12/07 09:15:33;;;;;;;18.15;7.55;;;1.60;99.90;;;;;;5035245;28;20585;-49
2021/12/07 09:17:59;;;;;;;24.90;8.77;;;1.70;99.90;;;;;;5033123;28;20041;-49
2021/12/07 09:20:25;;;;;;;18.95;7.65;;;1.70;99.90;;;;;;5023316;28;20044;-50
2021/12/07 09:22:51;;;;;;;18.23;7.00;;;1.70;99.90;;;;;;5034455;28;20102;-47
2021/12/07 09:25:18;;;;;;;23.80;8.13;;;1.80;99.90;;;;;;5041457;28;20037;-48
2021/12/07 09:27:46;;;;;;;22.92;8.20;;;1.90;99.90;;;;;;5042374;28;20057;-48
2021/12/07 09:30:16;;;;;;;20.48;7.10;;;2.00;99.90;;;;;;5012997;28;20037;-50
2021/12/07 09:32:51;;;;;;;28.65;7.35;;;2.10;99.90;;;;;;5026059;28;20124;-50
2021/12/07 09:35:18;;;;;;;23.50;6.80;;;2.30;99.90;;;;;;5023672;28;20052;-53
2021/12/07 09:37:44;;;;;;;19.92;8.65;;;2.40;99.90;;;;;;5039214;28;20049;-48
2021/12/07 09:40:14;;;;;;;16.88;5.90;;;2.40;99.90;;;;;;5038069;28;20099;-47
2021/12/07 09:42:40;;;;;;;23.23;6.47;;;2.50;99.90;;;;;;5029826;28;20064;-47
2021/12/07 09:45:08;;;;;;;15.02;5.30;;;2.60;99.90;;;;;;5022035;28;20060;-47
2021/12/07 09:47:34;;;;;;;16.65;5.18;;;2.60;99.90;;;;;;5041546;28;20116;-48
2021/12/07 09:50:02;;;;;;;20.27;6.20;;;2.70;99.90;;;;;;5045290;28;20060;-51
2021/12/07 09:52:28;;;;;;;15.88;6.35;;;2.80;99.90;;;;;;5044367;28;20067;-47
2021/12/07 09:54:55;;;;;;;19.60;5.55;;;3.00;99.90;;;;;;5042804;28;20531;-48
2021/12/07 09:57:21;;;;;;;18.75;5.60;;;3.00;99.90;;;;;;5044971;28;20048;-48
2021/12/07 09:59:48;;;;;;;12.32;5.38;;;3.10;99.90;;;;;;5034731;28;20103;-51
2021/12/07 10:02:14;;;;;;;13.93;5.10;;;3.20;99.90;;;;;;5043622;28;20060;-47
2021/12/07 10:04:39;;;;;;;26.58;6.75;;;3.20;99.90;;;;;;5027620;28;20409;-48
2021/12/07 10:07:08;;;;;;;14.75;6.10;;;3.30;99.90;;;;;;5055234;28;20055;-47
2021/12/07 10:09:35;;;;;;;21.45;6.30;;;3.50;99.90;;;;;;5048555;28;20647;-47
2021/12/07 10:12:01;;;;;;;18.63;6.75;;;3.70;99.90;;;;;;5042386;28;20050;-49
2021/12/07 10:14:41;;;;;;;14.27;6.18;;;3.90;99.90;;;;;;5041999;28;20098;-48
2021/12/07 10:17:08;;;;;;;17.38;5.75;;;4.10;99.90;;;;;;5038801;28;20060;-48
2021/12/07 10:19:37;;;;;;;15.52;5.22;;;4.20;99.90;;;;;;5051346;28;20132;-47
2021/12/07 10:22:09;;;;;;;21.02;5.25;;;4.30;99.90;;;;;;5035871;28;20057;-49
2021/12/07 10:24:50;;;;;;;18.90;5.75;;;4.30;99.90;;;;;;5048070;28;20548;-48
2021/12/07 10:27:38;;;;;;;19.70;5.40;;;4.30;99.90;;;;;;5033898;28;20045;-49
2021/12/07 10:30:16;;;;;;;18.42;5.32;;;4.20;99.90;;;;;;5023614;28;20092;-49
2021/12/07 10:32:42;;;;;;;18.52;4.63;;;4.20;99.90;;;;;;5043898;28;20577;-48
2021/12/07 10:35:31;;;;;;;19.58;6.13;;;4.20;99.90;;;;;;5010816;28;20068;-47
2021/12/07 10:38:15;;;;;;;15.73;5.18;;;4.10;99.90;;;;;;5043684;28;20060;-47
2021/12/07 10:40:55;;;;;;;15.23;5.65;;;4.10;99.90;;;;;;5047576;28;20045;-51
2021/12/07 10:44:10;;;;;;;23.45;6.18;;;4.10;99.90;;;;;;5043931;28;20057;-55
2021/12/07 10:46:36;;;;;;;19.65;6.35;;;4.20;99.90;;;;;;4922029;29;20071;-49
2021/12/07 10:49:23;;;;;;;25.20;5.43;;;4.10;99.90;;;;;;4944033;29;20059;-47
2021/12/07 10:52:06;;;;;;;12.70;5.95;;;4.10;99.90;;;;;;4943717;29;20058;-49
2021/12/07 10:54:42;;;;;;;16.48;5.35;;;4.10;99.90;;;;;;4951247;28;20581;-47
2021/12/07 10:57:22;;;;;;;19.35;6.32;;;4.10;99.90;;;;;;4944671;28;20070;-48
2021/12/07 11:00:10;;;;;;;19.13;5.35;;;4.10;99.90;;;;;;4948708;28;20058;-47
2021/12/07 11:02:38;;;;;;;18.92;6.13;;;4.10;99.90;;;;;;4944103;28;20094;-48
2021/12/07 11:05:25;;;;;;;21.70;6.53;;;4.10;99.90;;;;;;4944317;28;20105;-48
2021/12/07 11:07:51;;;;;;;18.50;5.82;;;4.10;99.90;;;;;;4943582;28;20055;-47
2021/12/07 11:10:28;;;;;;;18.58;7.03;;;4.10;99.90;;;;;;4928675;29;20122;-49
2021/12/07 11:15:27;;;;;;;23.10;6.00;;;4.00;99.90;;;;;;4952387;28;20065;-49
2021/12/07 11:17:59;;;;;;;14.50;6.00;;;4.10;99.90;;;;;;4935999;29;20047;-48
2021/12/07 11:20:27;;;;;;;18.27;5.43;;;4.10;99.90;;;;;;4951865;28;20073;-47
2021/12/07 11:22:58;;;;;;;25.35;6.95;;;4.10;99.90;;;;;;5009422;28;20065;-51
2021/12/07 11:31:37;;;;;;;18.45;7.60;;;4.40;99.90;;;;;;5027448;28;20053;-47
2021/12/07 11:34:10;;;;;;;19.73;6.97;;;4.60;99.90;;;;;;5028302;28;20049;-47
2021/12/07 11:37:17;;;;;;;;;;;4.80;99.90;;;;;;5006824;28;20091;-47
2021/12/07 11:39:49;;;;;;;19.13;7.43;;;5.00;99.90;;;;;;4952018;28;20730;-49
2021/12/07 11:42:36;;;;;;;18.73;7.13;;;5.10;99.90;;;;;;4935129;29;20059;-48
2021/12/07 11:45:49;;;;;;;21.65;6.10;;;5.10;99.90;;;;;;4913485;29;20463;-51
2021/12/07 11:48:35;;;;;;;15.60;5.20;;;5.10;99.90;;;;;;4943180;28;20283;-48
2021/12/07 11:51:02;;;;;;;15.30;5.57;;;5.10;99.90;;;;;;4935118;28;20050;-48
2021/12/07 11:53:29;;;;;;;16.77;6.20;;;5.10;99.90;;;;;;4956113;28;20059;-49
2021/12/07 11:56:07;;;;;;;16.50;6.32;;;5.10;99.90;;;;;;4936296;29;20051;-49
2021/12/07 11:58:33;;;;;;;19.38;6.47;;;5.00;99.90;;;;;;4950927;28;20542;-48
2021/12/07 12:00:59;;;;;;;15.80;6.75;;;5.10;99.90;;;;;;4967156;28;20058;-47
2021/12/07 12:03:43;;;;;;;14.68;6.07;;;5.00;99.90;;;;;;4965397;28;20497;-50
2021/12/07 12:06:09;;;;;;;21.65;7.40;;;5.00;99.90;;;;;;4965757;28;20053;-50
2021/12/07 12:08:49;;;;;;;15.77;6.72;;;5.10;99.90;;;;;;4964798;28;20130;-47
2021/12/07 12:11:42;;;;;;;18.27;6.80;;;5.00;99.90;;;;;;4963841;28;20133;-47
2021/12/07 12:14:18;;;;;;;17.45;7.35;;;5.00;99.90;;;;;;4972335;28;20046;-48
2021/12/07 12:16:55;;;;;;;18.58;7.68;;;5.00;99.90;;;;;;4992984;28;20397;-48
2021/12/07 12:19:37;;;;;;;16.17;6.70;;;5.00;99.90;;;;;;5022692;28;20053;-49
2021/12/07 12:22:31;;;;;;;19.67;6.65;;;5.00;99.90;;;;;;5007826;28;20499;-49
2021/12/07 12:25:27;;;;;;;15.15;6.15;;;5.00;99.90;;;;;;5012666;28;20123;-49
2021/12/07 12:27:55;;;;;;;15.23;7.45;;;4.90;99.90;;;;;;5018479;28;20075;-47
2021/12/07 12:30:35;;;;;;;14.38;5.45;;;4.90;99.90;;;;;;5012872;28;20622;-48
2021/12/07 12:33:04;;;;;;;17.08;6.88;;;4.90;99.90;;;;;;5008216;28;20052;-48
2021/12/07 12:35:38;;;;;;;21.10;6.35;;;4.80;99.90;;;;;;5027072;28;20385;-50
2021/12/07 12:38:17;;;;;;;19.63;7.47;;;4.80;99.90;;;;;;5023440;28;20504;-48
2021/12/07 12:41:07;;;;;;;18.92;5.85;;;4.80;99.90;;;;;;5033184;28;20128;-51
2021/12/07 12:43:58;;;;;;;15.40;5.97;;;4.80;99.90;;;;;;5029743;28;20045;-48
2021/12/07 12:46:32;;;;;;;12.82;5.50;;;4.80;99.90;;;;;;5026962;28;20519;-47
2021/12/07 12:49:01;;;;;;;15.77;5.70;;;4.80;99.90;;;;;;5028350;28;20040;-49
2021/12/07 12:51:31;;;;;;;21.02;7.07;;;4.80;99.90;;;;;;5018373;28;20132;-51
2021/12/07 12:53:58;;;;;;;10.95;5.43;;;4.80;99.90;;;;;;5036233;28;20056;-48
2021/12/07 12:56:30;;;;;;;22.08;6.05;;;4.90;99.90;;;;;;5028732;28;20041;-51
2021/12/07 12:59:01;;;;;;;13.75;5.63;;;4.90;99.90;;;;;;5023759;28;20135;-50
2021/12/07 13:01:28;;;;;;;16.05;5.45;;;4.90;99.90;;;;;;5051529;28;20475;-51
2021/12/07 13:04:14;;;;;;;15.70;5.65;;;5.00;99.90;;;;;;5048596;28;20413;-48
2021/12/07 13:07:01;;;;;;;15.20;6.28;;;4.90;99.90;;;;;;5046434;28;20051;-48
2021/12/07 13:10:04;;;;;;;13.93;5.72;;;5.00;99.90;;;;;;5041845;28;20574;-47
2021/12/07 13:12:38;;;;;;;12.05;5.45;;;5.00;99.90;;;;;;5051044;28;20033;-48
2021/12/07 13:15:09;;;;;;;13.35;5.75;;;4.90;99.90;;;;;;5026259;28;20097;-51
2021/12/07 13:17:39;;;;;;;17.48;6.53;;;5.00;99.90;;;;;;5046494;28;20041;-49
2021/12/07 13:20:05;;;;;;;17.20;6.22;;;5.00;99.90;;;;;;5058232;28;20120;-50
2021/12/07 13:22:41;;;;;;;15.30;5.88;;;4.90;99.90;;;;;;5042858;28;20132;-48
2021/12/07 13:25:38;;;;;;;18.65;6.13;;;4.90;99.90;;;;;;5054242;28;20060;-48
2021/12/07 13:28:25;;;;;;;16.90;5.97;;;4.90;99.90;;;;;;5054640;28;20080;-49
2021/12/07 13:31:09;;;;;;;17.60;6.05;;;4.90;99.90;;;;;;5039837;28;20053;-48
2021/12/07 13:33:54;;;;;;;10.98;5.82;;;4.80;99.90;;;;;;5051072;28;20088;-48
2021/12/07 13:40:01;;;;;;;15.25;6.07;;;4.80;99.90;;;;;;5041436;28;20040;-50
2021/12/07 13:42:28;;;;;;;19.02;6.63;;;4.70;99.90;;;;;;5050096;28;20045;-48
2021/12/07 13:45:09;;;;;;;16.95;5.85;;;4.70;99.90;;;;;;5051449;28;20425;-48
2021/12/07 13:47:45;;;;;;;24.98;6.80;;;4.70;99.90;;;;;;5050135;28;20056;-47
2021/12/07 13:50:31;;;;;;;18.60;6.53;;;4.60;99.90;;;;;;5032430;28;20033;-51
2021/12/07 13:52:57;;;;;;;14.88;5.88;;;4.60;99.90;;;;;;5050137;28;20527;-48
2021/12/07 13:55:29;;;;;;;15.13;6.32;;;4.60;99.90;;;;;;5050097;28;20055;-51
2021/12/07 13:57:59;;;;;;;21.48;6.07;;;4.50;99.90;;;;;;5031307;28;20045;-53
2021/12/07 14:00:31;;;;;;;19.80;5.72;;;4.60;99.90;;;;;;5031067;28;20486;-48
2021/12/07 14:03:19;;;;;;;19.30;6.15;;;4.50;99.90;;;;;;5050262;28;20045;-51
2021/12/07 14:05:46;;;;;;;16.88;5.97;;;4.50;99.90;;;;;;5049489;28;20539;-48
2021/12/07 14:08:14;;;;;;;17.02;5.93;;;4.40;99.90;;;;;;5035528;28;20535;-49
2021/12/07 14:10:50;;;;;;;16.63;6.38;;;4.40;99.90;;;;;;5049076;28;20074;-49
2021/12/07 14:13:17;;;;;;;23.02;7.40;;;4.30;99.90;;;;;;5047074;28;20040;-50
2021/12/07 14:15:48;;;;;;;16.40;6.50;;;4.30;99.90;;;;;;5037662;28;20108;-50
2021/12/07 14:18:19;;;;;;;20.30;6.78;;;4.30;99.90;;;;;;5044287;28;20053;-48
2021/12/07 14:20:49;;;;;;;16.15;7.05;;;4.20;99.90;;;;;;5059962;28;20161;-49
2021/12/07 14:23:36;;;;;;;19.48;7.18;;;4.20;99.90;;;;;;5057655;28;20048;-51
2021/12/07 14:26:34;;;;;;;20.63;7.80;;;4.20;99.90;;;;;;5048851;28;20049;-49
2021/12/07 14:29:33;;;;;;;19.23;7.25;;;4.10;99.90;;;;;;4966517;28;20063;-48
2021/12/07 14:31:59;;;;;;;21.33;7.68;;;4.00;99.90;;;;;;4897521;29;20071;-49
2021/12/07 14:34:45;;;;;;;20.77;8.45;;;4.00;99.90;;;;;;4883596;29;20064;-48
2021/12/07 14:37:20;;;;;;;28.38;9.60;;;3.90;99.90;;;;;;4892742;29;20451;-47
2021/12/07 14:39:46;;;;;;;24.17;9.98;;;3.90;99.90;;;;;;4903871;29;20064;-48
2021/12/07 14:42:18;;;;;;;23.23;9.20;;;3.80;99.90;;;;;;4897294;29;20463;-48
2021/12/07 14:44:51;;;;;;;22.75;10.45;;;3.80;99.90;;;;;;4889572;29;20423;-48
2021/12/07 14:47:18;;;;;;;32.00;11.85;;;3.70;99.90;;;;;;4892440;29;20469;-48
2021/12/07 14:49:52;;;;;;;25.60;12.48;;;3.70;99.90;;;;;;4889642;29;20052;-49
2021/12/07 14:52:36;;;;;;;25.48;14.13;;;3.60;99.90;;;;;;4879895;29;20064;-48
2021/12/07 14:55:07;;;;;;;30.05;13.55;;;3.50;99.90;;;;;;4890641;29;20152;-50
2021/12/07 14:57:36;;;;;;;30.30;14.52;;;3.50;99.90;;;;;;4872557;29;20487;-49
2021/12/07 15:00:06;;;;;;;32.35;15.15;;;3.40;99.90;;;;;;4896320;29;20118;-48
2021/12/07 15:02:39;;;;;;;28.02;14.75;;;3.40;99.90;;;;;;4892240;29;20057;-47
2021/12/07 15:05:09;;;;;;;28.35;14.32;;;3.30;99.90;;;;;;4886096;28;20600;-48
2021/12/07 15:07:38;;;;;;;27.48;14.13;;;3.30;99.90;;;;;;4942545;28;20086;-48
2021/12/07 15:10:10;;;;;;;30.08;13.93;;;3.20;99.90;;;;;;5036031;28;20468;-48
2021/12/07 15:12:38;;;;;;;31.13;14.65;;;3.20;99.90;;;;;;5039265;28;20087;-48
2021/12/07 15:15:05;;;;;;;30.50;15.00;;;3.10;99.90;;;;;;5024976;28;20052;-49
2021/12/07 15:17:40;;;;;;;31.90;16.45;;;3.00;99.90;;;;;;5023625;28;20052;-48
2021/12/07 15:20:10;;;;;;;31.70;16.85;;;3.00;99.90;;;;;;5020585;28;20471;-49
2021/12/07 15:22:36;;;;;;;30.50;17.30;;;3.00;99.90;;;;;;5022070;28;20049;-50
2021/12/07 15:25:07;;;;;;;28.40;16.23;;;2.90;99.90;;;;;;5026454;28;20060;-51
2021/12/07 15:27:32;;;;;;;31.33;16.10;;;2.90;99.90;;;;;;5037878;28;20059;-47
2021/12/07 15:29:58;;;;;;;32.97;17.60;;;2.90;99.90;;;;;;5024072;28;20078;-48
2021/12/07 15:32:24;;;;;;;30.15;16.63;;;2.80;99.90;;;;;;5042229;28;20088;-47
2021/12/07 15:34:52;;;;;;;37.42;18.88;;;2.80;99.90;;;;;;5041090;28;20587;-48
2021/12/07 15:37:23;;;;;;;33.42;16.17;;;2.80;99.90;;;;;;5044229;28;20040;-51
2021/12/07 15:39:51;;;;;;;28.42;14.85;;;2.80;99.90;;;;;;5030409;28;20129;-48
2021/12/07 15:42:26;;;;;;;36.45;17.42;;;2.80;99.90;;;;;;5034915;28;20041;-49
2021/12/07 15:45:03;;;;;;;34.83;15.70;;;2.70;99.90;;;;;;5020840;28;20044;-48
2021/12/07 15:47:35;;;;;;;29.42;15.45;;;2.70;99.90;;;;;;5035952;28;20044;-50
2021/12/07 15:50:13;;;;;;;29.65;15.75;;;2.70;99.90;;;;;;5002594;28;20415;-48
2021/12/07 15:52:49;;;;;;;28.33;14.85;;;2.60;99.90;;;;;;5036016;28;20061;-50
2021/12/07 15:55:22;;;;;;;35.10;15.85;;;2.60;99.90;;;;;;5023187;28;20425;-48
2021/12/07 15:58:06;;;;;;;32.63;17.23;;;2.60;99.90;;;;;;5038327;28;20048;-48
2021/12/07 16:00:38;;;;;;;32.33;16.10;;;2.60;99.90;;;;;;5037424;28;20048;-48
2021/12/07 16:03:20;;;;;;;30.25;14.82;;;2.50;99.90;;;;;;5033271;28;20055;-48
2021/12/07 16:06:00;;;;;;;31.33;15.38;;;2.50;99.90;;;;;;5035205;28;20558;-48
2021/12/07 16:08:35;;;;;;;37.05;15.50;;;2.50;99.90;;;;;;5023939;28;20052;-49
2021/12/07 16:11:22;;;;;;;34.55;14.93;;;2.50;99.90;;;;;;5040029;28;20475;-48
2021/12/07 16:13:57;;;;;;;29.35;14.02;;;2.50;99.90;;;;;;5049784;28;20411;-47
2021/12/07 16:16:25;;;;;;;31.48;13.32;;;2.50;99.90;;;;;;5041811;28;20486;-48
2021/12/07 16:18:52;;;;;;;34.33;15.30;;;2.50;99.90;;;;;;5024867;28;20057;-49
2021/12/07 16:21:19;;;;;;;30.20;14.38;;;2.50;99.90;;;;;;5020712;28;20052;-51
2021/12/07 16:23:51;;;;;;;32.03;14.93;;;2.50;99.90;;;;;;5021576;28;20045;-48
2021/12/07 16:26:18;;;;;;;30.50;13.50;;;2.40;99.90;;;;;;5017666;28;20055;-49
2021/12/07 16:28:53;;;;;;;25.42;13.05;;;2.40;99.90;;;;;;5048709;28;20068;-48
2021/12/07 16:31:20;;;;;;;24.75;13.10;;;2.50;99.90;;;;;;5046228;28;20085;-52
2021/12/07 16:33:47;;;;;;;34.58;12.93;;;2.50;99.90;;;;;;5055875;28;20049;-49
2021/12/07 16:36:14;;;;;;;30.40;13.05;;;2.40;99.90;;;;;;5033952;28;20466;-48
2021/12/07 16:38:44;;;;;;;26.33;13.88;;;2.40;99.90;;;;;;5032310;28;20113;-48
2021/12/07 16:41:12;;;;;;;28.25;12.77;;;2.50;99.90;;;;;;5046909;28;20133;-48
2021/12/07 16:43:43;;;;;;;25.70;12.57;;;2.40;99.90;;;;;;5040227;28;20060;-48
2021/12/07 16:46:09;;;;;;;24.73;11.50;;;2.50;99.90;;;;;;5041365;28;20101;-51